sensor_id;sensor_type;location;lat;lon;timestamp;temperature;humidity
35240;DHT22;21376;50.954;4.716;2022-07-05T00:02:23;14.60;99.90
35240;DHT22;21376;50.954;4.716;2022-07-05T00:04:53;14.60;99.90
35240;DHT22;21376;50.954;4.716;2022-07-05T00:07:19;14.50;99.90
35240;DHT22;21376;50.954;4.716;2022-07-05T00:09:52;14.50;99.90
35240;DHT22;21376;50.954;4.716;2022-07-05T00:12:30;14.40;99.90
35240;DHT22;21376;50.954;4.716;2022-07-05T00:15:30;14.40;99.90
35240;DHT22;21376;50.954;4.716;2022-07-05T00:17:57;14.40;99.90
35240;DHT22;21376;50.954;4.716;2022-07-05T00:20:23;14.20;99.90
35240;DHT22;21376;50.954;4.716;2022-07-05T00:22:55;14.20;99.90
35240;DHT22;21376;50.954;4.716;2022-07-05T00:25:26;14.10;99.90
35240;DHT22;21376;50.954;4.716;2022-07-05T00:28:04;14.10;99.90
35240;DHT22;21376;50.954;4.716;2022-07-05T00:30:36;14.10;99.90
35240;DHT22;21376;50.954;4.716;2022-07-05T00:33:33;14.10;99.90
35240;DHT22;21376;50.954;4.716;2022-07-05T00:36:25;14.00;99.90
35240;DHT22;21376;50.954;4.716;2022-07-05T00:38:54;13.90;99.90
35240;DHT22;21376;50.954;4.716;2022-07-05T00:41:23;13.90;99.90
35240;DHT22;21376;50.954;4.716;2022-07-05T00:44:09;13.80;99.90
35240;DHT22;21376;50.954;4.716;2022-07-05T00:46:43;13.70;99.90
35240;DHT22;21376;50.954;4.716;2022-07-05T00:49:09;13.80;99.90
35240;DHT22;21376;50.954;4.716;2022-07-05T00:51:41;13.80;99.90
35240;DHT22;21376;50.954;4.716;2022-07-05T00:54:19;13.60;99.90
35240;DHT22;21376;50.954;4.716;2022-07-05T01:00:07;13.50;99.90
35240;DHT22;21376;50.954;4.716;2022-07-05T01:02:36;13.50;99.90
35240;DHT22;21376;50.954;4.716;2022-07-05T01:05:05;13.50;99.90
35240;DHT22;21376;50.954;4.716;2022-07-05T01:07:34;13.50;99.90
35240;DHT22;21376;50.954;4.716;2022-07-05T01:10:03;13.40;99.90
35240;DHT22;21376;50.954;4.716;2022-07-05T01:12:32;13.40;99.90
35240;DHT22;21376;50.954;4.716;2022-07-05T01:15:01;13.50;99.90
35240;DHT22;21376;50.954;4.716;2022-07-05T01:17:35;13.60;99.90
35240;DHT22;21376;50.954;4.716;2022-07-05T01:20:11;13.70;99.90
35240;DHT22;21376;50.954;4.716;2022-07-05T01:22:51;13.50;99.90
35240;DHT22;21376;50.954;4.716;2022-07-05T01:25:25;13.40;99.90
35240;DHT22;21376;50.954;4.716;2022-07-05T01:27:54;13.40;99.90
35240;DHT22;21376;50.954;4.716;2022-07-05T01:30:23;13.30;99.90
35240;DHT22;21376;50.954;4.716;2022-07-05T01:32:51;13.30;99.90
35240;DHT22;21376;50.954;4.716;2022-07-05T01:35:20;13.30;99.90
35240;DHT22;21376;50.954;4.716;2022-07-05T01:37:51;13.10;99.90
35240;DHT22;21376;50.954;4.716;2022-07-05T01:40:23;13.20;99.90
35240;DHT22;21376;50.954;4.716;2022-07-05T01:42:52;13.30;99.90
35240;DHT22;21376;50.954;4.716;2022-07-05T01:45:20;13.40;99.90
35240;DHT22;21376;50.954;4.716;2022-07-05T01:48:16;13.30;99.90
35240;DHT22;21376;50.954;4.716;2022-07-05T01:51:06;13.30;99.90
35240;DHT22;21376;50.954;4.716;2022-07-05T01:53:36;13.20;99.90
35240;DHT22;21376;50.954;4.716;2022-07-05T01:56:20;13.10;99.90
35240;DHT22;21376;50.954;4.716;2022-07-05T01:58:46;13.10;99.90
35240;DHT22;21376;50.954;4.716;2022-07-05T02:01:15;13.20;99.90
35240;DHT22;21376;50.954;4.716;2022-07-05T02:03:57;13.10;99.90
35240;DHT22;21376;50.954;4.716;2022-07-05T02:06:23;13.10;99.90
35240;DHT22;21376;50.954;4.716;2022-07-05T02:08:50;13.10;99.90
35240;DHT22;21376;50.954;4.716;2022-07-05T02:11:22;13.20;99.90
35240;DHT22;21376;50.954;4.716;2022-07-05T02:13:48;13.10;99.90
35240;DHT22;21376;50.954;4.716;2022-07-05T02:16:17;13.00;99.90
35240;DHT22;21376;50.954;4.716;2022-07-05T02:18:46;13.00;99.90
35240;DHT22;21376;50.954;4.716;2022-07-05T02:21:13;12.80;99.90
35240;DHT22;21376;50.954;4.716;2022-07-05T02:23:42;12.80;99.90
35240;DHT22;21376;50.954;4.716;2022-07-05T02:26:11;12.70;99.90
35240;DHT22;21376;50.954;4.716;2022-07-05T02:28:40;12.80;99.90
35240;DHT22;21376;50.954;4.716;2022-07-05T02:31:07;12.80;99.90
35240;DHT22;21376;50.954;4.716;2022-07-05T02:33:36;12.80;99.90
35240;DHT22;21376;50.954;4.716;2022-07-05T02:36:12;12.80;99.90
35240;DHT22;21376;50.954;4.716;2022-07-05T02:38:50;12.70;99.90
35240;DHT22;21376;50.954;4.716;2022-07-05T02:41:16;12.60;99.90
35240;DHT22;21376;50.954;4.716;2022-07-05T02:43:45;12.60;99.90
35240;DHT22;21376;50.954;4.716;2022-07-05T02:46:11;12.60;99.90
35240;DHT22;21376;50.954;4.716;2022-07-05T02:48:40;12.60;99.90
35240;DHT22;21376;50.954;4.716;2022-07-05T02:51:34;12.70;99.90
35240;DHT22;21376;50.954;4.716;2022-07-05T02:54:01;12.50;99.90
35240;DHT22;21376;50.954;4.716;2022-07-05T02:56:29;12.60;99.90
35240;DHT22;21376;50.954;4.716;2022-07-05T02:58:55;12.60;99.90
35240;DHT22;21376;50.954;4.716;2022-07-05T03:01:24;12.60;99.90
35240;DHT22;21376;50.954;4.716;2022-07-05T03:03:51;12.50;99.90
35240;DHT22;21376;50.954;4.716;2022-07-05T03:06:20;12.50;99.90
35240;DHT22;21376;50.954;4.716;2022-07-05T03:08:51;12.50;99.90
35240;DHT22;21376;50.954;4.716;2022-07-05T03:11:19;12.50;99.90
35240;DHT22;21376;50.954;4.716;2022-07-05T03:13:46;12.40;99.90
35240;DHT22;21376;50.954;4.716;2022-07-05T03:16:28;12.50;99.90
35240;DHT22;21376;50.954;4.716;2022-07-05T03:18:59;12.50;99.90
35240;DHT22;21376;50.954;4.716;2022-07-05T03:21:31;12.50;99.90
35240;DHT22;21376;50.954;4.716;2022-07-05T03:24:00;12.40;99.90
35240;DHT22;21376;50.954;4.716;2022-07-05T03:26:29;12.50;99.90
35240;DHT22;21376;50.954;4.716;2022-07-05T03:28:58;12.40;99.90
35240;DHT22;21376;50.954;4.716;2022-07-05T03:31:26;12.40;99.90
35240;DHT22;21376;50.954;4.716;2022-07-05T03:33:52;12.30;99.90
35240;DHT22;21376;50.954;4.716;2022-07-05T03:36:17;12.30;99.90
35240;DHT22;21376;50.954;4.716;2022-07-05T03:38:43;12.30;99.90
35240;DHT22;21376;50.954;4.716;2022-07-05T03:41:09;12.40;99.90
35240;DHT22;21376;50.954;4.716;2022-07-05T03:43:35;12.40;99.90
35240;DHT22;21376;50.954;4.716;2022-07-05T03:46:00;12.40;99.90
35240;DHT22;21376;50.954;4.716;2022-07-05T03:48:30;12.50;99.90
35240;DHT22;21376;50.954;4.716;2022-07-05T03:50:55;12.50;99.90
35240;DHT22;21376;50.954;4.716;2022-07-05T03:53:21;12.40;99.90
35240;DHT22;21376;50.954;4.716;2022-07-05T03:55:47;12.30;99.90
35240;DHT22;21376;50.954;4.716;2022-07-05T03:58:13;12.20;99.90
35240;DHT22;21376;50.954;4.716;2022-07-05T04:00:38;12.30;99.90
35240;DHT22;21376;50.954;4.716;2022-07-05T04:03:04;12.30;99.90
35240;DHT22;21376;50.954;4.716;2022-07-05T04:05:30;12.40;99.90
35240;DHT22;21376;50.954;4.716;2022-07-05T04:07:56;12.50;99.90
35240;DHT22;21376;50.954;4.716;2022-07-05T04:10:22;12.50;99.90
35240;DHT22;21376;50.954;4.716;2022-07-05T04:12:48;12.50;99.90
35240;DHT22;21376;50.954;4.716;2022-07-05T04:15:15;12.60;99.90
35240;DHT22;21376;50.954;4.716;2022-07-05T04:17:54;12.50;99.90
35240;DHT22;21376;50.954;4.716;2022-07-05T04:23:01;12.60;99.90
35240;DHT22;21376;50.954;4.716;2022-07-05T04:25:27;12.50;99.90
35240;DHT22;21376;50.954;4.716;2022-07-05T04:27:54;12.70;99.90
35240;DHT22;21376;50.954;4.716;2022-07-05T04:30:23;12.80;99.90
35240;DHT22;21376;50.954;4.716;2022-07-05T04:32:49;13.00;99.90
35240;DHT22;21376;50.954;4.716;2022-07-05T04:35:15;13.20;99.90
35240;DHT22;21376;50.954;4.716;2022-07-05T04:37:45;13.30;99.90
35240;DHT22;21376;50.954;4.716;2022-07-05T04:40:12;13.80;99.90
35240;DHT22;21376;50.954;4.716;2022-07-05T04:42:38;15.10;99.90
35240;DHT22;21376;50.954;4.716;2022-07-05T04:45:05;16.50;99.90
35240;DHT22;21376;50.954;4.716;2022-07-05T04:47:31;17.80;99.90
35240;DHT22;21376;50.954;4.716;2022-07-05T04:49:57;18.60;99.90
35240;DHT22;21376;50.954;4.716;2022-07-05T04:52:24;19.60;99.90
35240;DHT22;21376;50.954;4.716;2022-07-05T04:54:51;20.40;99.90
35240;DHT22;21376;50.954;4.716;2022-07-05T04:57:18;21.30;99.90
35240;DHT22;21376;50.954;4.716;2022-07-05T04:59:43;21.00;99.90
35240;DHT22;21376;50.954;4.716;2022-07-05T05:02:09;20.00;99.90
35240;DHT22;21376;50.954;4.716;2022-07-05T05:04:35;19.10;99.90
35240;DHT22;21376;50.954;4.716;2022-07-05T05:07:01;19.60;99.90
35240;DHT22;21376;50.954;4.716;2022-07-05T05:09:27;21.30;99.90
35240;DHT22;21376;50.954;4.716;2022-07-05T05:11:53;23.10;99.90
35240;DHT22;21376;50.954;4.716;2022-07-05T05:14:19;24.50;99.90
35240;DHT22;21376;50.954;4.716;2022-07-05T05:16:46;24.10;99.90
35240;DHT22;21376;50.954;4.716;2022-07-05T05:19:12;25.20;99.90
35240;DHT22;21376;50.954;4.716;2022-07-05T05:21:38;26.50;99.90
35240;DHT22;21376;50.954;4.716;2022-07-05T05:24:04;27.00;99.90
35240;DHT22;21376;50.954;4.716;2022-07-05T05:26:30;27.80;99.90
35240;DHT22;21376;50.954;4.716;2022-07-05T05:28:56;27.80;99.50
35240;DHT22;21376;50.954;4.716;2022-07-05T05:31:22;27.30;98.10
35240;DHT22;21376;50.954;4.716;2022-07-05T05:33:47;28.30;96.50
35240;DHT22;21376;50.954;4.716;2022-07-05T05:36:13;26.80;98.50
35240;DHT22;21376;50.954;4.716;2022-07-05T05:38:39;28.10;96.70
35240;DHT22;21376;50.954;4.716;2022-07-05T05:41:05;28.70;95.10
35240;DHT22;21376;50.954;4.716;2022-07-05T05:43:34;30.10;93.10
35240;DHT22;21376;50.954;4.716;2022-07-05T05:46:03;30.80;90.80
35240;DHT22;21376;50.954;4.716;2022-07-05T05:48:31;30.60;88.70
35240;DHT22;21376;50.954;4.716;2022-07-05T05:50:56;31.10;87.60
35240;DHT22;21376;50.954;4.716;2022-07-05T05:53:25;31.70;83.70
35240;DHT22;21376;50.954;4.716;2022-07-05T05:55:55;32.10;81.20
35240;DHT22;21376;50.954;4.716;2022-07-05T05:58:23;32.40;79.80
35240;DHT22;21376;50.954;4.716;2022-07-05T06:00:54;32.90;77.70
35240;DHT22;21376;50.954;4.716;2022-07-05T06:03:25;33.70;77.10
35240;DHT22;21376;50.954;4.716;2022-07-05T06:05:55;34.50;73.80
35240;DHT22;21376;50.954;4.716;2022-07-05T06:08:24;33.90;69.60
35240;DHT22;21376;50.954;4.716;2022-07-05T06:14:25;32.40;71.90
35240;DHT22;21376;50.954;4.716;2022-07-05T06:16:51;31.70;75.70
35240;DHT22;21376;50.954;4.716;2022-07-05T06:19:49;32.30;74.10
35240;DHT22;21376;50.954;4.716;2022-07-05T06:22:16;33.50;73.00
35240;DHT22;21376;50.954;4.716;2022-07-05T06:24:45;34.90;68.90
35240;DHT22;21376;50.954;4.716;2022-07-05T06:27:14;35.30;68.50
35240;DHT22;21376;50.954;4.716;2022-07-05T06:29:46;34.00;68.60
35240;DHT22;21376;50.954;4.716;2022-07-05T06:32:21;33.60;67.10
35240;DHT22;21376;50.954;4.716;2022-07-05T06:34:50;33.60;66.40
35240;DHT22;21376;50.954;4.716;2022-07-05T06:37:18;33.40;68.50
35240;DHT22;21376;50.954;4.716;2022-07-05T06:40:03;33.30;71.60
35240;DHT22;21376;50.954;4.716;2022-07-05T06:42:34;33.80;68.90
35240;DHT22;21376;50.954;4.716;2022-07-05T06:45:05;34.60;69.30
35240;DHT22;21376;50.954;4.716;2022-07-05T06:47:35;35.30;65.00
35240;DHT22;21376;50.954;4.716;2022-07-05T06:50:05;35.70;63.80
35240;DHT22;21376;50.954;4.716;2022-07-05T06:52:34;36.40;63.10
35240;DHT22;21376;50.954;4.716;2022-07-05T06:55:00;36.00;61.90
35240;DHT22;21376;50.954;4.716;2022-07-05T06:57:31;35.90;61.10
35240;DHT22;21376;50.954;4.716;2022-07-05T07:00:00;36.70;59.80
35240;DHT22;21376;50.954;4.716;2022-07-05T07:02:47;36.30;59.60
35240;DHT22;21376;50.954;4.716;2022-07-05T07:05:15;36.00;60.40
35240;DHT22;21376;50.954;4.716;2022-07-05T07:07:41;36.30;59.00
35240;DHT22;21376;50.954;4.716;2022-07-05T07:10:41;35.40;61.10
35240;DHT22;21376;50.954;4.716;2022-07-05T07:13:08;34.30;62.70
35240;DHT22;21376;50.954;4.716;2022-07-05T07:15:35;34.10;63.90
35240;DHT22;21376;50.954;4.716;2022-07-05T07:18:06;34.80;62.30
35240;DHT22;21376;50.954;4.716;2022-07-05T07:20:38;36.10;58.80
35240;DHT22;21376;50.954;4.716;2022-07-05T07:23:07;35.00;61.80
35240;DHT22;21376;50.954;4.716;2022-07-05T07:25:33;36.00;62.00
35240;DHT22;21376;50.954;4.716;2022-07-05T07:28:01;37.00;59.80
35240;DHT22;21376;50.954;4.716;2022-07-05T07:30:30;37.30;57.20
35240;DHT22;21376;50.954;4.716;2022-07-05T07:33:02;36.20;57.30
35240;DHT22;21376;50.954;4.716;2022-07-05T07:35:29;36.40;63.60
35240;DHT22;21376;50.954;4.716;2022-07-05T07:37:56;37.00;57.80
35240;DHT22;21376;50.954;4.716;2022-07-05T07:40:21;37.30;58.20
35240;DHT22;21376;50.954;4.716;2022-07-05T07:42:50;37.70;56.40
35240;DHT22;21376;50.954;4.716;2022-07-05T07:45:19;38.40;54.90
35240;DHT22;21376;50.954;4.716;2022-07-05T07:47:48;37.70;57.60
35240;DHT22;21376;50.954;4.716;2022-07-05T07:50:17;36.60;57.20
35240;DHT22;21376;50.954;4.716;2022-07-05T07:52:45;37.50;57.90
35240;DHT22;21376;50.954;4.716;2022-07-05T07:55:17;37.40;55.10
35240;DHT22;21376;50.954;4.716;2022-07-05T07:57:46;38.70;56.50
35240;DHT22;21376;50.954;4.716;2022-07-05T08:00:14;38.50;52.90
35240;DHT22;21376;50.954;4.716;2022-07-05T08:02:39;38.00;54.10
35240;DHT22;21376;50.954;4.716;2022-07-05T08:05:11;37.60;54.10
35240;DHT22;21376;50.954;4.716;2022-07-05T08:07:40;38.70;54.70
35240;DHT22;21376;50.954;4.716;2022-07-05T08:10:09;38.20;54.90
35240;DHT22;21376;50.954;4.716;2022-07-05T08:12:37;40.00;52.80
35240;DHT22;21376;50.954;4.716;2022-07-05T08:15:06;38.30;52.00
35240;DHT22;21376;50.954;4.716;2022-07-05T08:17:36;36.20;55.00
35240;DHT22;21376;50.954;4.716;2022-07-05T08:20:05;35.90;56.20
35240;DHT22;21376;50.954;4.716;2022-07-05T08:22:52;36.10;57.40
35240;DHT22;21376;50.954;4.716;2022-07-05T08:25:21;35.70;57.30
35240;DHT22;21376;50.954;4.716;2022-07-05T08:30:15;35.00;58.70
35240;DHT22;21376;50.954;4.716;2022-07-05T08:32:45;34.10;57.10
35240;DHT22;21376;50.954;4.716;2022-07-05T08:35:10;32.90;58.30
35240;DHT22;21376;50.954;4.716;2022-07-05T08:37:39;34.50;60.40
35240;DHT22;21376;50.954;4.716;2022-07-05T08:40:12;36.20;54.80
35240;DHT22;21376;50.954;4.716;2022-07-05T08:42:43;36.20;55.20
35240;DHT22;21376;50.954;4.716;2022-07-05T08:45:16;36.30;56.10
35240;DHT22;21376;50.954;4.716;2022-07-05T08:47:51;36.30;54.60
35240;DHT22;21376;50.954;4.716;2022-07-05T08:50:21;36.20;53.80
35240;DHT22;21376;50.954;4.716;2022-07-05T08:52:50;36.50;54.10
35240;DHT22;21376;50.954;4.716;2022-07-05T08:55:17;36.20;54.40
35240;DHT22;21376;50.954;4.716;2022-07-05T08:57:49;36.30;53.80
35240;DHT22;21376;50.954;4.716;2022-07-05T09:00:18;37.40;51.60
35240;DHT22;21376;50.954;4.716;2022-07-05T09:02:47;39.40;51.50
35240;DHT22;21376;50.954;4.716;2022-07-05T09:05:19;40.40;49.20
35240;DHT22;21376;50.954;4.716;2022-07-05T09:14:25;39.60;47.70
35240;DHT22;21376;50.954;4.716;2022-07-05T09:16:54;39.00;51.10
35240;DHT22;21376;50.954;4.716;2022-07-05T09:19:23;38.10;52.30
35240;DHT22;21376;50.954;4.716;2022-07-05T09:22:03;38.20;50.50
35240;DHT22;21376;50.954;4.716;2022-07-05T09:24:29;37.20;53.70
35240;DHT22;21376;50.954;4.716;2022-07-05T09:27:04;36.00;54.10
35240;DHT22;21376;50.954;4.716;2022-07-05T09:36:15;31.50;58.80
35240;DHT22;21376;50.954;4.716;2022-07-05T09:38:49;31.10;63.20
35240;DHT22;21376;50.954;4.716;2022-07-05T09:41:17;30.90;61.10
35240;DHT22;21376;50.954;4.716;2022-07-05T09:43:46;29.80;64.30
35240;DHT22;21376;50.954;4.716;2022-07-05T09:49:54;33.00;58.30
35240;DHT22;21376;50.954;4.716;2022-07-05T09:52:30;32.50;57.60
35240;DHT22;21376;50.954;4.716;2022-07-05T09:55:09;33.10;57.30
35240;DHT22;21376;50.954;4.716;2022-07-05T09:57:45;32.90;57.30
35240;DHT22;21376;50.954;4.716;2022-07-05T10:00:19;32.90;58.60
35240;DHT22;21376;50.954;4.716;2022-07-05T10:02:47;33.80;56.00
35240;DHT22;21376;50.954;4.716;2022-07-05T10:05:18;32.70;58.00
35240;DHT22;21376;50.954;4.716;2022-07-05T10:08:10;33.40;58.70
35240;DHT22;21376;50.954;4.716;2022-07-05T10:10:41;36.70;56.80
35240;DHT22;21376;50.954;4.716;2022-07-05T10:13:14;38.00;53.30
35240;DHT22;21376;50.954;4.716;2022-07-05T10:15:44;38.80;51.60
35240;DHT22;21376;50.954;4.716;2022-07-05T10:18:20;37.40;50.20
35240;DHT22;21376;50.954;4.716;2022-07-05T10:20:51;35.40;53.90
35240;DHT22;21376;50.954;4.716;2022-07-05T10:23:21;35.70;54.50
35240;DHT22;21376;50.954;4.716;2022-07-05T10:25:54;37.40;55.00
35240;DHT22;21376;50.954;4.716;2022-07-05T10:28:28;38.60;49.80
35240;DHT22;21376;50.954;4.716;2022-07-05T10:30:58;40.30;50.00
35240;DHT22;21376;50.954;4.716;2022-07-05T10:33:28;41.40;46.00
35240;DHT22;21376;50.954;4.716;2022-07-05T10:35:57;40.90;44.90
35240;DHT22;21376;50.954;4.716;2022-07-05T10:38:27;37.70;49.70
35240;DHT22;21376;50.954;4.716;2022-07-05T10:40:59;36.80;50.50
35240;DHT22;21376;50.954;4.716;2022-07-05T10:43:30;37.10;53.10
35240;DHT22;21376;50.954;4.716;2022-07-05T10:46:03;37.70;50.00
35240;DHT22;21376;50.954;4.716;2022-07-05T10:49:08;37.60;47.40
35240;DHT22;21376;50.954;4.716;2022-07-05T10:51:37;38.50;48.90
35240;DHT22;21376;50.954;4.716;2022-07-05T10:54:09;38.90;46.10
35240;DHT22;21376;50.954;4.716;2022-07-05T11:00:08;36.50;46.00
35240;DHT22;21376;50.954;4.716;2022-07-05T11:06:08;33.50;51.90
35240;DHT22;21376;50.954;4.716;2022-07-05T11:11:36;32.50;54.60
35240;DHT22;21376;50.954;4.716;2022-07-05T11:14:50;33.10;54.70
35240;DHT22;21376;50.954;4.716;2022-07-05T11:20:03;31.70;56.90
35240;DHT22;21376;50.954;4.716;2022-07-05T11:22:30;32.40;53.80
35240;DHT22;21376;50.954;4.716;2022-07-05T11:25:23;34.20;53.60
35240;DHT22;21376;50.954;4.716;2022-07-05T11:30:53;33.30;52.20
35240;DHT22;21376;50.954;4.716;2022-07-05T11:33:42;33.80;51.40
35240;DHT22;21376;50.954;4.716;2022-07-05T11:36:22;32.90;52.70
35240;DHT22;21376;50.954;4.716;2022-07-05T11:41:38;33.50;52.00
35240;DHT22;21376;50.954;4.716;2022-07-05T11:44:07;33.80;52.40
35240;DHT22;21376;50.954;4.716;2022-07-05T11:46:37;34.40;53.90
35240;DHT22;21376;50.954;4.716;2022-07-05T11:49:05;35.10;54.70
35240;DHT22;21376;50.954;4.716;2022-07-05T11:51:33;34.30;51.00
35240;DHT22;21376;50.954;4.716;2022-07-05T11:54:03;34.80;52.10
35240;DHT22;21376;50.954;4.716;2022-07-05T11:56:32;34.30;50.80
35240;DHT22;21376;50.954;4.716;2022-07-05T11:59:17;34.30;55.00
35240;DHT22;21376;50.954;4.716;2022-07-05T12:01:46;34.60;51.80
35240;DHT22;21376;50.954;4.716;2022-07-05T12:04:48;33.30;53.40
35240;DHT22;21376;50.954;4.716;2022-07-05T12:07:34;32.30;57.40
35240;DHT22;21376;50.954;4.716;2022-07-05T12:10:04;31.20;58.10
35240;DHT22;21376;50.954;4.716;2022-07-05T12:12:51;31.30;57.10
35240;DHT22;21376;50.954;4.716;2022-07-05T12:15:21;30.80;58.40
35240;DHT22;21376;50.954;4.716;2022-07-05T12:17:50;30.20;58.80
35240;DHT22;21376;50.954;4.716;2022-07-05T12:20:24;30.10;59.60
35240;DHT22;21376;50.954;4.716;2022-07-05T12:22:53;30.50;61.70
35240;DHT22;21376;50.954;4.716;2022-07-05T12:25:23;32.40;60.30
35240;DHT22;21376;50.954;4.716;2022-07-05T12:28:00;33.20;55.00
35240;DHT22;21376;50.954;4.716;2022-07-05T12:30:32;34.20;53.60
35240;DHT22;21376;50.954;4.716;2022-07-05T12:33:10;34.90;54.00
35240;DHT22;21376;50.954;4.716;2022-07-05T12:35:57;35.70;50.50
35240;DHT22;21376;50.954;4.716;2022-07-05T12:38:29;34.60;51.40
35240;DHT22;21376;50.954;4.716;2022-07-05T12:41:01;32.80;56.20
35240;DHT22;21376;50.954;4.716;2022-07-05T12:49:20;28.70;62.10
35240;DHT22;21376;50.954;4.716;2022-07-05T12:51:49;28.00;63.50
35240;DHT22;21376;50.954;4.716;2022-07-05T12:54:20;27.10;66.50
35240;DHT22;21376;50.954;4.716;2022-07-05T12:57:08;26.70;69.60
35240;DHT22;21376;50.954;4.716;2022-07-05T13:00:08;26.80;68.70
35240;DHT22;21376;50.954;4.716;2022-07-05T13:02:40;26.30;70.00
35240;DHT22;21376;50.954;4.716;2022-07-05T13:05:22;26.40;68.80
35240;DHT22;21376;50.954;4.716;2022-07-05T13:07:57;27.40;67.60
35240;DHT22;21376;50.954;4.716;2022-07-05T13:10:27;27.60;71.10
35240;DHT22;21376;50.954;4.716;2022-07-05T13:13:00;28.80;68.30
35240;DHT22;21376;50.954;4.716;2022-07-05T13:16:01;30.90;62.80
35240;DHT22;21376;50.954;4.716;2022-07-05T13:18:30;30.60;61.40
35240;DHT22;21376;50.954;4.716;2022-07-05T13:21:00;28.80;65.20
35240;DHT22;21376;50.954;4.716;2022-07-05T13:23:29;27.80;66.20
35240;DHT22;21376;50.954;4.716;2022-07-05T13:26:00;27.50;69.00
35240;DHT22;21376;50.954;4.716;2022-07-05T13:28:27;27.30;68.30
35240;DHT22;21376;50.954;4.716;2022-07-05T13:30:59;28.00;70.00
35240;DHT22;21376;50.954;4.716;2022-07-05T13:33:28;28.10;70.80
35240;DHT22;21376;50.954;4.716;2022-07-05T13:35:54;28.10;68.80
35240;DHT22;21376;50.954;4.716;2022-07-05T13:38:22;27.70;70.10
35240;DHT22;21376;50.954;4.716;2022-07-05T13:40:48;27.30;70.70
35240;DHT22;21376;50.954;4.716;2022-07-05T13:43:26;27.00;69.70
35240;DHT22;21376;50.954;4.716;2022-07-05T13:45:57;27.00;72.60
35240;DHT22;21376;50.954;4.716;2022-07-05T13:48:23;26.60;70.20
35240;DHT22;21376;50.954;4.716;2022-07-05T13:50:49;26.30;70.90
35240;DHT22;21376;50.954;4.716;2022-07-05T13:53:15;26.20;71.90
35240;DHT22;21376;50.954;4.716;2022-07-05T13:55:41;26.20;74.90
35240;DHT22;21376;50.954;4.716;2022-07-05T13:58:07;26.40;73.50
35240;DHT22;21376;50.954;4.716;2022-07-05T14:00:33;26.30;71.90
35240;DHT22;21376;50.954;4.716;2022-07-05T14:03:07;25.90;73.10
35240;DHT22;21376;50.954;4.716;2022-07-05T14:05:36;25.70;73.10
35240;DHT22;21376;50.954;4.716;2022-07-05T14:08:03;25.20;71.90
35240;DHT22;21376;50.954;4.716;2022-07-05T14:10:29;25.10;72.80
35240;DHT22;21376;50.954;4.716;2022-07-05T14:12:55;25.40;74.70
35240;DHT22;21376;50.954;4.716;2022-07-05T14:15:21;25.40;75.20
35240;DHT22;21376;50.954;4.716;2022-07-05T14:17:47;25.60;72.30
35240;DHT22;21376;50.954;4.716;2022-07-05T14:20:13;25.90;72.40
35240;DHT22;21376;50.954;4.716;2022-07-05T14:22:39;26.20;73.80
35240;DHT22;21376;50.954;4.716;2022-07-05T14:25:05;25.90;72.80
35240;DHT22;21376;50.954;4.716;2022-07-05T14:27:34;25.80;73.30
35240;DHT22;21376;50.954;4.716;2022-07-05T14:30:00;25.60;72.60
35240;DHT22;21376;50.954;4.716;2022-07-05T14:32:25;25.40;73.90
35240;DHT22;21376;50.954;4.716;2022-07-05T14:34:51;25.20;72.10
35240;DHT22;21376;50.954;4.716;2022-07-05T14:37:17;25.40;72.60
35240;DHT22;21376;50.954;4.716;2022-07-05T14:39:45;25.20;73.80
35240;DHT22;21376;50.954;4.716;2022-07-05T14:42:12;25.50;73.80
35240;DHT22;21376;50.954;4.716;2022-07-05T14:44:39;25.30;74.40
35240;DHT22;21376;50.954;4.716;2022-07-05T14:47:04;24.70;73.90
35240;DHT22;21376;50.954;4.716;2022-07-05T14:49:30;24.70;76.60
35240;DHT22;21376;50.954;4.716;2022-07-05T14:51:57;24.00;77.40
35240;DHT22;21376;50.954;4.716;2022-07-05T14:54:23;23.80;77.30
35240;DHT22;21376;50.954;4.716;2022-07-05T14:56:49;23.90;78.60
35240;DHT22;21376;50.954;4.716;2022-07-05T14:59:16;23.80;77.50
35240;DHT22;21376;50.954;4.716;2022-07-05T15:01:41;24.00;76.50
35240;DHT22;21376;50.954;4.716;2022-07-05T15:04:07;24.20;74.40
35240;DHT22;21376;50.954;4.716;2022-07-05T15:06:34;24.00;77.10
35240;DHT22;21376;50.954;4.716;2022-07-05T15:08:59;23.70;79.70
35240;DHT22;21376;50.954;4.716;2022-07-05T15:11:25;23.80;79.40
35240;DHT22;21376;50.954;4.716;2022-07-05T15:13:51;23.80;77.40
35240;DHT22;21376;50.954;4.716;2022-07-05T15:16:17;23.80;77.00
35240;DHT22;21376;50.954;4.716;2022-07-05T15:18:43;23.60;77.00
35240;DHT22;21376;50.954;4.716;2022-07-05T15:21:10;23.50;78.80
35240;DHT22;21376;50.954;4.716;2022-07-05T15:23:39;23.40;77.50
35240;DHT22;21376;50.954;4.716;2022-07-05T15:26:06;23.20;79.60
35240;DHT22;21376;50.954;4.716;2022-07-05T15:28:32;23.40;81.20
35240;DHT22;21376;50.954;4.716;2022-07-05T15:30:58;23.60;79.40
35240;DHT22;21376;50.954;4.716;2022-07-05T15:33:23;23.20;78.90
35240;DHT22;21376;50.954;4.716;2022-07-05T15:35:56;23.00;82.40
35240;DHT22;21376;50.954;4.716;2022-07-05T15:38:26;22.90;79.60
35240;DHT22;21376;50.954;4.716;2022-07-05T15:40:56;23.00;80.20
35240;DHT22;21376;50.954;4.716;2022-07-05T15:43:23;22.90;79.80
35240;DHT22;21376;50.954;4.716;2022-07-05T15:45:54;23.00;81.60
35240;DHT22;21376;50.954;4.716;2022-07-05T15:48:20;23.00;77.40
35240;DHT22;21376;50.954;4.716;2022-07-05T15:50:46;22.90;77.60
35240;DHT22;21376;50.954;4.716;2022-07-05T15:53:12;23.10;80.60
35240;DHT22;21376;50.954;4.716;2022-07-05T15:55:40;23.00;77.90
35240;DHT22;21376;50.954;4.716;2022-07-05T15:58:08;22.70;77.20
35240;DHT22;21376;50.954;4.716;2022-07-05T16:00:34;22.50;77.60
35240;DHT22;21376;50.954;4.716;2022-07-05T16:03:00;22.50;77.90
35240;DHT22;21376;50.954;4.716;2022-07-05T16:05:25;22.40;78.80
35240;DHT22;21376;50.954;4.716;2022-07-05T16:07:51;22.30;78.60
35240;DHT22;21376;50.954;4.716;2022-07-05T16:10:17;22.00;79.40
35240;DHT22;21376;50.954;4.716;2022-07-05T16:12:43;21.90;78.80
35240;DHT22;21376;50.954;4.716;2022-07-05T16:15:09;22.00;79.60
35240;DHT22;21376;50.954;4.716;2022-07-05T16:17:55;22.00;79.80
35240;DHT22;21376;50.954;4.716;2022-07-05T16:20:21;22.30;78.70
35240;DHT22;21376;50.954;4.716;2022-07-05T16:22:47;22.60;78.60
35240;DHT22;21376;50.954;4.716;2022-07-05T16:25:13;22.70;77.70
35240;DHT22;21376;50.954;4.716;2022-07-05T16:27:40;22.80;76.70
35240;DHT22;21376;50.954;4.716;2022-07-05T16:30:06;22.60;77.50
35240;DHT22;21376;50.954;4.716;2022-07-05T16:32:32;22.30;77.30
35240;DHT22;21376;50.954;4.716;2022-07-05T16:34:58;22.20;78.70
35240;DHT22;21376;50.954;4.716;2022-07-05T16:37:34;22.20;78.30
35240;DHT22;21376;50.954;4.716;2022-07-05T16:40:03;22.10;78.50
35240;DHT22;21376;50.954;4.716;2022-07-05T16:42:32;22.10;78.80
35240;DHT22;21376;50.954;4.716;2022-07-05T16:45:01;21.90;79.10